Time;durP1;ratioP1;P1;durP2;ratioP2;P2;SDS_P1;SDS_P2;PMS_P1;PMS_P2;Temp;Humidity;BMP_temperature;BMP_pressure;BME280_temperature;BME280_humidity;BME280_pressure;Samples;Min_cycle;Max_cycle;Signal;HPM_P1;HPM_P2
2022/12/20 00:01:30;;;;;;;26.42;9.93;;;;;;;;;;5035497;28;20025;-82
2022/12/20 00:03:57;;;;;;;18.30;8.02;;;;;;;;;;5040173;28;20653;-83
2022/12/20 00:06:24;;;;;;;20.65;9.18;;;;;;;;;;5042481;28;20025;-83
2022/12/20 00:08:53;;;;;;;17.83;7.88;;;;;;;;;;5030716;28;20041;-81
2022/12/20 00:11:19;;;;;;;16.83;8.48;;;;;;;;;;5039410;28;20033;-81
2022/12/20 00:13:46;;;;;;;20.17;8.85;;;;;;;;;;5038888;28;21158;-81
2022/12/20 00:16:12;;;;;;;28.20;9.18;;;;;;;;;;5041816;28;20037;-84
2022/12/20 00:18:39;;;;;;;21.98;9.88;;;1.70;99.90;;;;;;5046142;28;20026;-83
2022/12/20 00:21:06;;;;;;;19.83;10.45;;;;;;;;;;5032901;28;20025;-83
2022/12/20 00:23:32;;;;;;;27.42;9.93;;;;;;;;;;5037792;28;20065;-82
2022/12/20 00:26:05;;;;;;;23.85;10.65;;;;;;;;;;5044775;28;20025;-83
2022/12/20 00:28:32;;;;;;;27.15;10.82;;;;;;;;;;5050659;28;20059;-82
2022/12/20 00:30:58;;;;;;;22.02;9.43;;;;;;;;;;5053939;28;20025;-83
2022/12/20 00:33:24;;;;;;;23.92;9.38;;;;;;;;;;5058914;28;20144;-84
2022/12/20 00:35:50;;;;;;;20.60;9.13;;;;;;;;;;5043882;28;20580;-80
2022/12/20 00:38:16;;;;;;;20.42;10.18;;;;;;;;;;5035487;28;20075;-81
2022/12/20 00:40:42;;;;;;;22.95;9.73;;;;;;;;;;5039386;28;20036;-82
2022/12/20 00:43:08;;;;;;;25.58;10.90;;;;;;;;;;5024358;28;20087;-81
2022/12/20 00:45:34;;;;;;;18.02;7.97;;;;;;;;;;5034289;28;20036;-79
2022/12/20 00:48:00;;;;;;;23.83;8.27;;;;;;;;;;5042963;28;20032;-81
2022/12/20 00:50:26;;;;;;;16.17;7.68;;;;;;;;;;5042542;28;20039;-82
2022/12/20 00:52:52;;;;;;;23.55;8.75;;;;;;;;;;5039035;28;20393;-81
2022/12/20 00:55:18;;;;;;;19.88;9.77;;;;;;;;;;5043046;28;20037;-80
2022/12/20 00:57:44;;;;;;;16.33;8.55;;;;;;;;;;5040220;28;20079;-83
2022/12/20 01:00:10;;;;;;;24.45;10.02;;;;;;;;;;5034640;28;20490;-80
2022/12/20 01:02:36;;;;;;;20.50;11.02;;;;;;;;;;5043371;28;20108;-83
2022/12/20 01:05:02;;;;;;;18.30;8.27;;;;;;;;;;5043269;28;20124;-81
2022/12/20 01:07:28;;;;;;;23.63;8.50;;;;;;;;;;5035155;28;20055;-83
2022/12/20 01:09:54;;;;;;;22.00;9.57;;;;;;;;;;5027004;28;20568;-81
2022/12/20 01:12:20;;;;;;;16.55;8.20;;;;;;;;;;5030096;28;21205;-82
2022/12/20 01:14:46;;;;;;;18.52;8.82;;;;;;;;;;5043261;28;22089;-83
2022/12/20 01:17:12;;;;;;;13.13;7.43;;;;;;;;;;5035555;28;20116;-80
2022/12/20 01:19:39;;;;;;;17.60;8.32;;;;;;;;;;5019652;28;20029;-80
2022/12/20 01:22:05;;;;;;;21.77;9.40;;;;;;;;;;5020511;28;20029;-82
2022/12/20 01:24:31;;;;;;;18.45;8.20;;;;;;;;;;5024960;28;20066;-83
2022/12/20 01:26:57;;;;;;;17.83;8.05;;;;;;;;;;5030953;28;20037;-82
2022/12/20 01:29:23;;;;;;;18.48;9.98;;;;;;;;;;5022356;28;20060;-81
2022/12/20 01:31:49;;;;;;;19.63;8.82;;;;;;;;;;5020151;28;20022;-84
2022/12/20 01:34:15;;;;;;;19.60;9.60;;;;;;;;;;5037141;28;20036;-83
2022/12/20 01:36:41;;;;;;;16.10;7.45;;;;;;;;;;5031390;28;20116;-80
2022/12/20 01:39:08;;;;;;;14.90;7.70;;;;;;;;;;5034244;28;20037;-82
2022/12/20 01:41:35;;;;;;;15.52;7.38;;;;;;;;;;5032536;28;20591;-83
2022/12/20 01:44:05;;;;;;;23.27;9.18;;;;;;;;;;5026037;28;20670;-79
2022/12/20 01:46:33;;;;;;;18.88;8.43;;;;;;;;;;5038491;28;20028;-82
2022/12/20 01:48:59;;;;;;;21.90;9.18;;;;;;;;;;5042592;28;20041;-83
2022/12/20 01:51:25;;;;;;;19.85;8.88;;;;;;;;;;5029897;28;20229;-83
2022/12/20 01:53:55;;;;;;;17.27;8.05;;;;;;;;;;5033650;28;20034;-81
2022/12/20 01:56:21;;;;;;;20.58;8.35;;;;;;;;;;5042830;28;20646;-82
2022/12/20 01:58:48;;;;;;;22.15;8.82;;;;;;;;;;5026441;28;20037;-82
2022/12/20 02:01:14;;;;;;;18.30;7.47;;;;;;;;;;5031735;28;20033;-82
2022/12/20 02:03:42;;;;;;;16.88;7.30;;;;;;;;;;5024874;28;20025;-80
2022/12/20 02:06:18;;;;;;;26.02;9.88;;;;;;;;;;5036159;28;20080;-83
2022/12/20 02:08:45;;;;;;;19.40;8.70;;;;;;;;;;5039716;28;20038;-82
2022/12/20 02:11:14;;;;;;;20.45;8.45;;;;;;;;;;5039451;28;20097;-83
2022/12/20 02:13:51;;;;;;;13.90;6.65;;;;;;;;;;5031762;28;20033;-83
2022/12/20 02:16:21;;;;;;;18.92;7.35;;;;;;;;;;5040788;28;20029;-82
2022/12/20 02:19:04;;;;;;;17.55;7.68;;;;;;;;;;5049019;28;20029;-81
2022/12/20 02:21:36;;;;;;;17.45;8.13;;;;;;;;;;5031392;28;20036;-84
2022/12/20 02:24:08;;;;;;;18.70;7.97;;;;;;;;;;5038236;28;20083;-82
2022/12/20 02:26:53;;;;;;;23.23;8.57;;;;;;;;;;5034056;28;20041;-83
2022/12/20 02:29:29;;;;;;;19.27;8.38;;;;;;;;;;5039213;28;20044;-81
2022/12/20 02:32:00;;;;;;;24.90;8.82;;;;;;;;;;5041580;28;20371;-81
2022/12/20 02:34:27;;;;;;;17.35;8.13;;;;;;;;;;5034454;28;20092;-81
2022/12/20 02:36:53;;;;;;;16.67;7.88;;;;;;;;;;5039264;28;20091;-84
2022/12/20 02:39:19;;;;;;;16.23;8.70;;;;;;;;;;5035122;28;20033;-83
2022/12/20 02:41:49;;;;;;;16.83;7.72;;;;;;;;;;5035517;28;20037;-82
2022/12/20 02:47:04;;;;;;;14.77;8.10;;;;;;;;;;5045592;28;20103;-82
2022/12/20 02:49:32;;;;;;;17.95;9.65;;;;;;;;;;5045051;28;20043;-83
2022/12/20 02:51:59;;;;;;;20.40;7.82;;;;;;;;;;5043881;28;20033;-81
2022/12/20 02:54:25;;;;;;;15.60;9.07;;;;;;;;;;5033572;28;20527;-81
2022/12/20 02:56:55;;;;;;;17.88;7.68;;;;;;;;;;5043506;28;20028;-83
2022/12/20 02:59:23;;;;;;;21.17;8.95;;;;;;;;;;5029120;28;20615;-82
2022/12/20 03:01:50;;;;;;;14.10;7.50;;;;;;;;;;5035872;28;20032;-81
2022/12/20 03:04:17;;;;;;;22.35;9.63;;;;;;;;;;5044030;28;20090;-82
2022/12/20 03:07:02;;;;;;;15.30;8.00;;;2.20;99.90;;;;;;5044650;28;20025;-81
2022/12/20 03:09:32;;;;;;;16.48;9.20;;;;;;;;;;5038110;28;20098;-81
2022/12/20 03:11:58;;;;;;;17.15;8.65;;;;;;;;;;5039875;28;20036;-83
2022/12/20 03:14:25;;;;;;;16.67;8.02;;;;;;;;;;5040473;28;20036;-81
2022/12/20 03:16:51;;;;;;;21.90;7.57;;;;;;;;;;5040910;28;20037;-80
2022/12/20 03:19:17;;;;;;;19.75;9.85;;;;;;;;;;5042501;28;20033;-80
2022/12/20 03:21:43;;;;;;;15.75;8.45;;;;;;;;;;5044621;28;20086;-83
2022/12/20 03:24:10;;;;;;;15.10;8.50;;;;;;;;;;5040116;28;20029;-83
2022/12/20 03:26:36;;;;;;;19.27;9.18;;;;;;;;;;5039578;28;20048;-82
2022/12/20 03:29:02;;;;;;;17.38;6.88;;;;;;;;;;5031429;28;20437;-82
2022/12/20 03:31:28;;;;;;;16.33;7.25;;;;;;;;;;5037326;28;20025;-82
2022/12/20 03:33:55;;;;;;;15.65;7.80;;;;;;;;;;5033245;28;20037;-83
2022/12/20 03:36:22;;;;;;;15.02;8.45;;;;;;;;;;5039023;28;20032;-81
2022/12/20 03:38:49;;;;;;;17.73;7.88;;;;;;;;;;5029557;28;20041;-82
2022/12/20 03:41:15;;;;;;;16.13;8.15;;;;;;;;;;5030460;28;20382;-82
2022/12/20 03:43:41;;;;;;;13.82;7.25;;;;;;;;;;5034936;28;20021;-82
2022/12/20 03:46:07;;;;;;;15.82;8.38;;;;;;;;;;5043978;28;20045;-84
2022/12/20 03:48:33;;;;;;;16.90;7.15;;;;;;;;;;5034641;28;20040;-82
2022/12/20 03:50:59;;;;;;;14.45;7.55;;;;;;;;;;5044276;28;20021;-85
2022/12/20 03:53:24;;;;;;;17.63;5.97;;;;;;;;;;5040231;28;20368;-83
2022/12/20 03:55:50;;;;;;;17.65;8.30;;;;;;;;;;5033419;28;20056;-80
2022/12/20 03:58:16;;;;;;;15.35;6.47;;;;;;;;;;5033847;28;20029;-82
2022/12/20 04:00:42;;;;;;;24.60;8.88;;;;;;;;;;5027460;28;20175;-81
2022/12/20 04:03:08;;;;;;;14.93;7.90;;;;;;;;;;5041837;28;20036;-81
2022/12/20 04:05:34;;;;;;;16.92;7.45;;;;;;;;;;5049839;28;20037;-84
2022/12/20 04:08:00;;;;;;;13.80;8.23;;;;;;;;;;5034728;28;20589;-81
2022/12/20 04:10:26;;;;;;;21.67;8.48;;;;;;;;;;5042489;28;20037;-84
2022/12/20 04:12:52;;;;;;;16.25;8.85;;;;;;;;;;5022924;28;20175;-81
2022/12/20 04:15:18;;;;;;;18.58;8.32;;;;;;;;;;5044809;28;20021;-82
2022/12/20 04:17:44;;;;;;;14.07;7.35;;;;;;;;;;5045112;28;20027;-83
2022/12/20 04:20:19;;;;;;;13.60;7.50;;;;;;;;;;5034098;28;20032;-83
2022/12/20 04:22:49;;;;;;;19.05;7.63;;;;;;;;;;5035100;28;20022;-83
2022/12/20 04:25:15;;;;;;;17.48;7.93;;;;;;;;;;5030421;28;20489;-83
2022/12/20 04:27:41;;;;;;;21.67;8.07;;;;;;;;;;5041065;28;20032;-84
2022/12/20 04:30:08;;;;;;;21.55;8.80;;;;;;;;;;5042435;28;20536;-81
2022/12/20 04:32:34;;;;;;;16.70;8.38;;;;;;;;;;5031018;28;20059;-80
2022/12/20 04:35:00;;;;;;;21.95;9.15;;;;;;;;;;5039382;28;20044;-85
2022/12/20 04:37:26;;;;;;;17.90;7.65;;;;;;;;;;5041480;28;20021;-82
2022/12/20 04:39:52;;;;;;;16.38;8.32;;;;;;;;;;5041589;28;20436;-79
2022/12/20 04:42:18;;;;;;;16.80;7.25;;;;;;;;;;5041660;28;20037;-83
2022/12/20 04:44:44;;;;;;;17.60;6.93;;;;;;;;;;5037111;28;20029;-82
2022/12/20 04:47:10;;;;;;;18.17;8.07;;;;;;;;;;5049619;28;20115;-84
2022/12/20 04:49:35;;;;;;;16.38;8.07;;;;;;;;;;5039266;28;20029;-82
2022/12/20 04:53:46;;;;;;;17.15;9.07;;;;;;;;;;5040575;28;20670;-82
2022/12/20 04:54:47;;;;;;;13.80;7.15;;;;;;;;;;5039128;28;20040;-83
2022/12/20 04:57:13;;;;;;;16.55;7.13;;;;;;;;;;5030077;28;20029;-80
2022/12/20 04:59:39;;;;;;;12.95;6.93;;;;;;;;;;5037928;28;20063;-82
2022/12/20 05:02:05;;;;;;;14.77;7.70;;;;;;;;;;5022897;28;20429;-84
2022/12/20 05:04:31;;;;;;;15.15;7.88;;;;;;;;;;5028878;28;21137;-83
2022/12/20 05:06:57;;;;;;;15.63;7.22;;;;;;;;;;5037767;28;20040;-83
2022/12/20 05:09:23;;;;;;;21.05;8.43;;;;;;;;;;5035507;28;20037;-83
2022/12/20 05:11:49;;;;;;;17.17;8.70;;;;;;;;;;5036099;28;20049;-81
2022/12/20 05:14:15;;;;;;;17.33;7.82;;;;;;;;;;5035858;28;20069;-83
2022/12/20 05:16:41;;;;;;;20.08;7.43;;;;;;;;;;5040957;28;20025;-84
2022/12/20 05:19:07;;;;;;;13.68;7.07;;;;;;;;;;5047539;28;20047;-85
2022/12/20 05:27:02;;;;;;;24.15;8.18;;;;;;;;;;5041252;28;20063;-81
2022/12/20 05:29:28;;;;;;;21.23;7.25;;;;;;;;;;5035682;28;20443;-83
2022/12/20 05:31:54;;;;;;;24.02;7.97;;;;;;;;;;5032796;28;20025;-82
2022/12/20 05:34:20;;;;;;;15.57;7.72;;;;;;;;;;5042198;28;20496;-83
2022/12/20 05:36:46;;;;;;;15.75;8.02;;;;;;;;;;5026323;28;20033;-82
2022/12/20 05:39:12;;;;;;;18.65;8.43;;;;;;;;;;5036855;28;20094;-84
2022/12/20 05:41:39;;;;;;;20.60;8.63;;;;;;;;;;5035903;28;20032;-82
2022/12/20 05:44:06;;;;;;;15.52;9.15;;;;;;;;;;5038245;28;20082;-82
2022/12/20 05:46:32;;;;;;;13.18;8.00;;;;;;;;;;5042771;28;20024;-80
2022/12/20 05:48:58;;;;;;;16.73;8.35;;;;;;;;;;5041619;28;20094;-80
2022/12/20 05:51:24;;;;;;;20.20;9.30;;;;;;;;;;5041288;28;20025;-82
2022/12/20 05:53:50;;;;;;;19.13;7.78;;;;;;;;;;5043422;28;20029;-83
2022/12/20 05:56:16;;;;;;;12.45;7.47;;;2.80;99.90;;;;;;5047214;28;20028;-84
2022/12/20 05:58:42;;;;;;;24.05;9.60;;;;;;;;;;5051024;28;20029;-85
2022/12/20 06:01:09;;;;;;;12.50;6.32;;;;;;;;;;5044844;28;20476;-83
2022/12/20 06:03:35;;;;;;;30.33;9.32;;;;;;;;;;5045027;28;20025;-82
2022/12/20 06:06:01;;;;;;;19.70;7.85;;;;;;;;;;5044118;28;20284;-82
2022/12/20 06:08:27;;;;;;;21.52;9.07;;;;;;;;;;5055347;28;20063;-84
2022/12/20 06:10:53;;;;;;;16.48;7.03;;;;;;;;;;5063523;28;20504;-81
2022/12/20 06:13:19;;;;;;;13.02;7.30;;;;;;;;;;5061862;28;20017;-81
2022/12/20 06:15:45;;;;;;;15.70;7.85;;;;;;;;;;5046990;28;20029;-82
2022/12/20 06:18:11;;;;;;;19.40;8.73;;;;;;;;;;5033178;28;20422;-84
2022/12/20 06:20:38;;;;;;;20.85;8.98;;;;;;;;;;5041049;28;20026;-81
2022/12/20 06:23:04;;;;;;;16.67;7.90;;;;;;;;;;5037952;28;20025;-79
2022/12/20 06:25:30;;;;;;;23.58;7.97;;;;;;;;;;5038008;28;20111;-81
2022/12/20 06:27:56;;;;;;;13.10;7.47;;;;;;;;;;5033786;28;20090;-80
2022/12/20 06:30:22;;;;;;;24.05;8.32;;;;;;;;;;5038638;28;20032;-82
2022/12/20 06:32:48;;;;;;;17.83;9.18;;;;;;;;;;5042245;28;20021;-82
2022/12/20 06:35:15;;;;;;;27.05;11.98;;;;;;;;;;5038560;28;20032;-82
2022/12/20 06:37:41;;;;;;;28.88;12.70;;;;;;;;;;5030492;28;20026;-80
2022/12/20 06:40:08;;;;;;;29.92;12.07;;;;;;;;;;5039843;28;20047;-81
2022/12/20 06:42:34;;;;;;;46.53;19.63;;;;;;;;;;5039740;28;20029;-81
2022/12/20 06:45:00;;;;;;;83.28;29.63;;;;;;;;;;5046858;28;20159;-83
2022/12/20 06:47:26;;;;;;;24.27;14.05;;;;;;;;;;5044206;28;20033;-82
2022/12/20 06:49:52;;;;;;;26.42;10.82;;;;;;;;;;5040641;28;20041;-81
2022/12/20 06:52:18;;;;;;;14.23;8.95;;;;;;;;;;5032103;28;20033;-81
2022/12/20 06:54:44;;;;;;;22.60;8.68;;;;;;;;;;5042377;28;20492;-82
2022/12/20 06:57:10;;;;;;;15.95;8.15;;;;;;;;;;5034182;28;20393;-82
2022/12/20 06:59:36;;;;;;;19.35;8.68;;;;;;;;;;5041574;28;20024;-80
2022/12/20 07:02:02;;;;;;;15.77;7.55;;;;;;;;;;5040328;28;20103;-79
2022/12/20 07:04:27;;;;;;;18.48;8.52;;;;;;;;;;5042224;28;20037;-82
2022/12/20 07:06:53;;;;;;;16.80;8.13;;;;;;;;;;5036733;28;20425;-81
2022/12/20 07:09:19;;;;;;;18.30;8.23;;;;;;;;;;5041349;28;20044;-83
2022/12/20 07:11:45;;;;;;;16.58;8.73;;;;;;;;;;5036976;28;20045;-81
2022/12/20 07:14:11;;;;;;;17.48;7.45;;;;;;;;;;5040375;28;20394;-80
2022/12/20 07:16:40;;;;;;;15.57;7.43;;;;;;;;;;5035329;28;20026;-79
2022/12/20 07:19:06;;;;;;;10.70;6.15;;;;;;;;;;5068167;28;20045;-79
2022/12/20 07:21:32;;;;;;;12.13;7.88;;;;;;;;;;5061064;28;20063;-80
2022/12/20 07:23:58;;;;;;;13.30;7.82;;;;;;;;;;5033575;28;20030;-83
2022/12/20 07:26:24;;;;;;;19.25;7.18;;;;;;;;;;5018110;28;20108;-82
2022/12/20 07:28:50;;;;;;;16.05;7.57;;;;;;;;;;5029583;28;20136;-81
2022/12/20 07:31:16;;;;;;;17.02;6.72;;;;;;;;;;5043144;28;20151;-81
2022/12/20 07:33:42;;;;;;;14.55;6.82;;;;;;;;;;5040509;28;20501;-82
2022/12/20 07:36:11;;;;;;;20.45;7.85;;;2.50;99.90;;;;;;5035525;28;20087;-82
2022/12/20 07:38:37;;;;;;;17.42;6.95;;;;;;;;;;5036427;28;20063;-82
2022/12/20 07:41:10;;;;;;;17.35;8.98;;;;;;;;;;5043025;28;20024;-81
2022/12/20 07:43:36;;;;;;;20.13;7.20;;;;;;;;;;5034129;28;20061;-79
2022/12/20 07:46:03;;;;;;;13.90;7.55;;;2.20;99.90;;;;;;5033422;28;20704;-82
2022/12/20 07:48:28;;;;;;;20.35;9.55;;;;;;;;;;5032520;28;20042;-80
2022/12/20 07:50:57;;;;;;;14.32;6.47;;;;;;;;;;5031245;28;20037;-80
2022/12/20 07:53:24;;;;;;;14.35;6.22;;;;;;;;;;5042105;28;20370;-79
2022/12/20 07:55:50;;;;;;;21.73;9.30;;;;;;;;;;5038262;28;20492;-83
2022/12/20 07:58:20;;;;;;;29.75;10.95;;;;;;;;;;5034093;28;20028;-82
2022/12/20 08:00:46;;;;;;;19.00;8.05;;;;;;;;;;5039444;28;20040;-80
2022/12/20 08:03:15;;;;;;;17.58;7.65;;;;;;;;;;5043361;28;20029;-82
2022/12/20 08:05:43;;;;;;;16.55;7.25;;;;;;;;;;5041512;28;20049;-81
2022/12/20 08:08:09;;;;;;;11.90;6.68;;;;;;;;;;5031897;28;20033;-81
2022/12/20 08:10:36;;;;;;;15.73;5.90;;;;;;;;;;5039030;28;20045;-84
2022/12/20 08:13:03;;;;;;;17.10;7.25;;;;;;;;;;5032668;28;20074;-83
2022/12/20 08:15:29;;;;;;;12.45;6.43;;;;;;;;;;5046150;28;20029;-84
2022/12/20 08:17:55;;;;;;;15.63;7.80;;;;;;;;;;5041487;28;20017;-82
2022/12/20 08:20:21;;;;;;;16.85;6.60;;;;;;;;;;5042188;28;20100;-80
2022/12/20 08:22:47;;;;;;;19.00;7.40;;;;;;;;;;5036503;28;20096;-80
2022/12/20 08:25:13;;;;;;;18.35;7.68;;;;;;;;;;5043839;28;20093;-81
2022/12/20 08:27:39;;;;;;;14.75;6.55;;;;;;;;;;5040185;28;20028;-82
2022/12/20 08:30:07;;;;;;;14.52;6.05;;;;;;;;;;5042826;28;20424;-82
2022/12/20 08:32:33;;;;;;;16.63;6.93;;;;;;;;;;5036186;28;20033;-82
2022/12/20 08:34:59;;;;;;;16.48;7.22;;;;;;;;;;5042771;28;20029;-80
2022/12/20 08:37:25;;;;;;;18.10;7.32;;;;;;;;;;5044361;28;20017;-81
2022/12/20 08:39:51;;;;;;;17.30;7.65;;;;;;;;;;5047636;28;20035;-82
2022/12/20 08:42:17;;;;;;;14.52;6.95;;;;;;;;;;5035995;28;20107;-81
2022/12/20 08:44:43;;;;;;;10.15;6.03;;;;;;;;;;5046612;28;20033;-83
2022/12/20 08:47:09;;;;;;;15.10;6.88;;;;;;;;;;5050395;28;20021;-80
2022/12/20 08:49:35;;;;;;;13.20;6.70;;;;;;;;;;5043524;28;20420;-82
2022/12/20 08:52:01;;;;;;;11.70;6.43;;;;;;;;;;5040256;28;20040;-84
2022/12/20 08:54:27;;;;;;;12.65;7.03;;;;;;;;;;5046292;28;20025;-84
2022/12/20 08:56:53;;;;;;;20.85;5.97;;;;;;;;;;5042587;28;20602;-82
2022/12/20 08:59:19;;;;;;;15.98;5.75;;;;;;;;;;5042666;28;20029;-84
2022/12/20 09:01:45;;;;;;;11.00;5.55;;;;;;;;;;5047415;28;20078;-83
2022/12/20 09:04:11;;;;;;;16.25;7.93;;;;;;;;;;5040158;28;20124;-81
2022/12/20 09:06:38;;;;;;;15.07;6.22;;;;;;;;;;5039711;28;20021;-81
2022/12/20 09:09:05;;;;;;;15.13;7.30;;;;;;;;;;5042592;28;20551;-82
2022/12/20 09:11:32;;;;;;;13.95;6.40;;;;;;;;;;5050227;28;20033;-80
2022/12/20 09:14:00;;;;;;;13.57;6.40;;;;;;;;;;5043090;28;20025;-84
2022/12/20 09:16:28;;;;;;;15.18;6.63;;;;;;;;;;5040725;28;20039;-85
2022/12/20 09:18:55;;;;;;;11.40;5.50;;;;;;;;;;5037179;28;20092;-82
2022/12/20 09:21:21;;;;;;;15.52;6.20;;;;;;;;;;5034611;28;20056;-83
2022/12/20 09:23:47;;;;;;;9.38;5.45;;;;;;;;;;5030959;28;20555;-83
2022/12/20 09:26:14;;;;;;;11.13;6.10;;;;;;;;;;5042676;28;20029;-85
2022/12/20 09:28:41;;;;;;;20.33;8.82;;;;;;;;;;5042449;28;20038;-84
2022/12/20 09:31:08;;;;;;;21.83;9.90;;;;;;;;;;5035516;28;20032;-85
2022/12/20 09:33:35;;;;;;;20.88;9.23;;;;;;;;;;5045644;28;20037;-85
2022/12/20 09:36:01;;;;;;;19.25;7.32;;;;;;;;;;5037275;28;20029;-84
2022/12/20 09:38:28;;;;;;;16.48;7.68;;;4.40;99.90;;;;;;5039822;28;20028;-83
2022/12/20 09:40:56;;;;;;;14.63;7.07;;;;;;;;;;5037793;28;20026;-84
2022/12/20 09:43:23;;;;;;;15.70;6.53;;;5.50;99.90;;;;;;5044664;28;20033;-82
2022/12/20 09:45:52;;;;;;;18.65;7.82;;;;;;;;;;5042939;28;21368;-84
2022/12/20 09:48:25;;;;;;;11.52;6.22;;;;;;;;;;5042481;28;20048;-84
2022/12/20 09:50:51;;;;;;;15.82;7.70;;;;;;;;;;5034306;28;20162;-83
2022/12/20 09:53:28;;;;;;;20.98;7.88;;;;;;;;;;5043140;28;20088;-84
2022/12/20 09:55:58;;;;;;;14.45;7.20;;;;;;;;;;5031624;28;20052;-85
2022/12/20 09:58:36;;;;;;;19.92;6.60;;;;;;;;;;5040258;28;20032;-84
2022/12/20 10:01:15;;;;;;;10.18;5.47;;;;;;;;;;5046663;28;20062;-82
2022/12/20 10:03:41;;;;;;;26.30;9.18;;;;;;;;;;5040559;28;20036;-84
2022/12/20 10:06:13;;;;;;;15.07;7.65;;;;;;;;;;5039368;28;20034;-84
2022/12/20 10:08:44;;;;;;;16.58;6.68;;;5.80;99.90;;;;;;5042289;28;20029;-84
2022/12/20 10:11:25;;;;;;;16.67;6.68;;;;;;;;;;5036565;28;20083;-85
2022/12/20 10:13:57;;;;;;;8.93;4.75;;;;;;;;;;5034647;28;20033;-80
2022/12/20 10:16:39;;;;;;;15.02;6.32;;;;;;;;;;5042850;28;20086;-83
2022/12/20 10:19:14;;;;;;;10.07;4.80;;;;;;;;;;5040622;28;20029;-83
2022/12/20 10:21:40;;;;;;;16.02;6.07;;;;;;;;;;5042740;28;20052;-83
2022/12/20 10:24:27;;;;;;;12.27;5.13;;;;;;;;;;5034130;28;20428;-83
2022/12/20 10:26:53;;;;;;;15.88;6.07;;;;;;;;;;5048921;28;20477;-84
2022/12/20 10:29:20;;;;;;;11.70;6.10;;;;;;;;;;5040904;28;20032;-83
2022/12/20 10:31:46;;;;;;;10.95;4.85;;;;;;;;;;5037965;28;20029;-84
2022/12/20 10:34:12;;;;;;;16.75;5.70;;;;;;;;;;5036140;28;20060;-84
2022/12/20 10:36:38;;;;;;;11.82;5.43;;;;;;;;;;5045710;28;20052;-84
2022/12/20 10:39:06;;;;;;;12.60;6.18;;;;;;;;;;5029916;28;20044;-84
2022/12/20 10:41:39;;;;;;;12.57;7.25;;;5.70;99.90;;;;;;5038394;28;20504;-84
2022/12/20 10:44:14;;;;;;;16.58;5.88;;;;;;;;;;5036983;28;20028;-84
2022/12/20 10:46:52;;;;;;;16.13;6.13;;;;;;;;;;5038937;28;20060;-85
2022/12/20 10:49:35;;;;;;;19.90;7.22;;;6.20;99.90;;;;;;5039591;28;20037;-84
2022/12/20 10:52:02;;;;;;;15.02;6.45;;;;;;;;;;5040406;28;20369;-83
2022/12/20 10:54:30;;;;;;;11.02;6.10;;;;;;;;;;5043122;28;20033;-86
2022/12/20 10:56:58;;;;;;;40.38;14.77;;;5.90;99.90;;;;;;5045312;28;20033;-84
2022/12/20 10:59:35;;;;;;;26.52;11.18;;;;;;;;;;5040377;28;20033;-84
2022/12/20 11:02:02;;;;;;;17.50;7.18;;;;;;;;;;5034814;28;20028;-84
2022/12/20 11:04:33;;;;;;;12.40;6.43;;;;;;;;;;5029467;28;20041;-85
2022/12/20 11:07:00;;;;;;;17.48;6.10;;;;;;;;;;5028943;28;21005;-85
2022/12/20 11:09:29;;;;;;;9.73;5.50;;;;;;;;;;5037867;28;20051;-85
2022/12/20 11:11:59;;;;;;;12.18;6.93;;;;;;;;;;5038221;28;21249;-85
2022/12/20 11:14:25;;;;;;;13.40;6.32;;;;;;;;;;5039636;28;20029;-84
2022/12/20 11:16:52;;;;;;;7.15;4.20;;;;;;;;;;5040058;28;20133;-84
2022/12/20 11:19:37;;;;;;;12.80;6.05;;;;;;;;;;5022828;28;20059;-86
2022/12/20 11:22:29;;;;;;;20.42;6.95;;;;;;;;;;5029785;28;20032;-83
2022/12/20 11:25:01;;;;;;;12.65;5.38;;;;;;;;;;5037449;28;20029;-85
2022/12/20 11:27:35;;;;;;;15.85;5.85;;;;;;;;;;5031706;28;20032;-85
2022/12/20 11:30:01;;;;;;;11.65;6.85;;;;;;;;;;5034885;28;20071;-87
2022/12/20 11:32:52;;;;;;;13.02;6.28;;;;;;;;;;5035012;28;20587;-83
2022/12/20 11:35:22;;;;;;;16.15;6.10;;;;;;;;;;5036674;28;20063;-84
2022/12/20 11:38:00;;;;;;;8.30;4.75;;;;;;;;;;5031893;28;20017;-84
2022/12/20 11:40:30;;;;;;;13.70;5.32;;;;;;;;;;5028445;28;20060;-85
2022/12/20 11:43:05;;;;;;;9.15;5.13;;;;;;;;;;5035930;28;20035;-83
2022/12/20 11:45:37;;;;;;;11.07;5.35;;;;;;;;;;5038563;28;20021;-84
2022/12/20 11:48:06;;;;;;;11.80;5.90;;;;;;;;;;5057372;28;20076;-84
2022/12/20 11:50:47;;;;;;;10.63;4.60;;;;;;;;;;5038100;28;20041;-83
2022/12/20 11:53:24;;;;;;;18.88;5.28;;;;;;;;;;5030059;28;20025;-85
2022/12/20 11:55:53;;;;;;;12.55;5.68;;;;;;;;;;5041942;28;20043;-84
2022/12/20 11:58:27;;;;;;;8.43;5.00;;;;;;;;;;5057715;28;20052;-84
2022/12/20 12:01:13;;;;;;;14.10;5.15;;;;;;;;;;5059686;28;20056;-82
2022/12/20 12:03:41;;;;;;;10.98;4.60;;;;;;;;;;5062414;28;20010;-85
2022/12/20 12:06:15;;;;;;;10.27;5.10;;;;;;;;;;5064005;28;20492;-83
2022/12/20 12:08:48;;;;;;;13.25;4.35;;;;;;;;;;5034388;28;20472;-83
2022/12/20 12:11:20;;;;;;;10.57;4.38;;;;;;;;;;5050213;28;20075;-84
2022/12/20 12:13:48;;;;;;;9.98;4.35;;;;;;;;;;5041781;28;20102;-85
2022/12/20 12:16:34;;;;;;;10.25;5.60;;;;;;;;;;5051979;28;20037;-85
2022/12/20 12:19:00;;;;;;;8.70;4.30;;;;;;;;;;5030413;28;20029;-84
2022/12/20 12:21:31;;;;;;;14.63;5.10;;;;;;;;;;5030802;28;20128;-86
2022/12/20 12:24:00;;;;;;;10.15;5.68;;;;;;;;;;5040352;28;20033;-83
2022/12/20 12:26:33;;;;;;;10.75;4.07;;;;;;;;;;5043831;28;20544;-82
2022/12/20 12:29:01;;;;;;;11.93;5.82;;;;;;;;;;5036187;28;20051;-86
2022/12/20 12:31:36;;;;;;;9.88;4.63;;;;;;;;;;5037551;28;20017;-83
2022/12/20 12:34:05;;;;;;;10.50;5.15;;;;;;;;;;5037145;28;20033;-83
2022/12/20 12:36:34;;;;;;;8.35;4.40;;;;;;;;;;5038909;28;20029;-82
2022/12/20 12:39:09;;;;;;;14.40;4.88;;;;;;;;;;5042171;28;20120;-85
2022/12/20 12:42:01;;;;;;;9.25;4.47;;;;;;;;;;5039757;28;20025;-83
2022/12/20 12:44:30;;;;;;;10.82;4.20;;;;;;;;;;5036862;28;20386;-82
2022/12/20 12:46:59;;;;;;;9.77;4.07;;;;;;;;;;5045862;28;20037;-81
2022/12/20 12:49:27;;;;;;;11.88;5.50;;;;;;;;;;5040780;28;20505;-83
2022/12/20 12:51:55;;;;;;;14.65;6.13;;;;;;;;;;5033929;28;20063;-83
2022/12/20 12:54:23;;;;;;;13.70;5.65;;;;;;;;;;5030337;28;20477;-82
2022/12/20 12:56:49;;;;;;;11.98;5.82;;;;;;;;;;5043432;28;20172;-83
2022/12/20 12:59:34;;;;;;;14.93;7.30;;;;;;;;;;5046395;28;20048;-81
2022/12/20 13:02:03;;;;;;;14.48;7.03;;;;;;;;;;5050401;28;20054;-82
2022/12/20 13:04:29;;;;;;;13.00;6.05;;;;;;;;;;5040667;28;20059;-79
2022/12/20 13:06:57;;;;;;;12.88;6.38;;;6.60;99.90;;;;;;5042068;28;20066;-79
2022/12/20 13:09:26;;;;;;;13.02;5.70;;;;;;;;;;5041357;28;20051;-82
2022/12/20 13:11:56;;;;;;;14.00;6.05;;;;;;;;;;5041728;28;20098;-79
2022/12/20 13:14:26;;;;;;;13.48;4.88;;;;;;;;;;5032162;28;20439;-81
2022/12/20 13:17:17;;;;;;;13.38;5.97;;;6.20;99.90;;;;;;5034432;28;20060;-83
2022/12/20 13:19:51;;;;;;;10.20;5.32;;;;;;;;;;5036884;28;20032;-82
2022/12/20 13:22:17;;;;;;;10.77;5.28;;;;;;;;;;5043064;28;20486;-81
2022/12/20 13:24:47;;;;;;;10.57;5.55;;;;;;;;;;5046947;28;20029;-85
2022/12/20 13:27:16;;;;;;;10.27;5.65;;;;;;;;;;5042099;28;20035;-82
2022/12/20 13:30:16;;;;;;;13.98;6.18;;;;;;;;;;5046546;28;20045;-81
2022/12/20 13:32:47;;;;;;;9.80;5.00;;;6.40;99.90;;;;;;5028197;28;20041;-85
2022/12/20 13:35:28;;;;;;;11.00;5.40;;;;;;;;;;5041096;28;21534;-83
2022/12/20 13:37:56;;;;;;;11.45;5.95;;;;;;;;;;5043153;28;20028;-84
2022/12/20 13:40:31;;;;;;;17.42;7.15;;;;;;;;;;5034406;28;20056;-83
2022/12/20 13:42:59;;;;;;;10.82;6.32;;;;;;;;;;5033445;28;20282;-83
2022/12/20 13:45:26;;;;;;;17.70;7.65;;;;;;;;;;5038842;28;20061;-83
2022/12/20 13:47:54;;;;;;;17.10;7.63;;;;;;;;;;5039496;28;20142;-83
2022/12/20 13:50:30;;;;;;;8.82;5.22;;;;;;;;;;5035505;28;20445;-84
2022/12/20 13:52:57;;;;;;;12.82;6.13;;;;;;;;;;5044083;28;20485;-84
2022/12/20 13:55:28;;;;;;;13.43;6.00;;;;;;;;;;5045587;28;20025;-84
2022/12/20 13:57:54;;;;;;;13.38;6.40;;;;;;;;;;5037590;28;20021;-81
2022/12/20 14:00:25;;;;;;;17.65;6.93;;;;;;;;;;5032098;28;20105;-83
2022/12/20 14:02:51;;;;;;;17.58;6.00;;;;;;;;;;5018846;28;20021;-83
2022/12/20 14:05:27;;;;;;;16.60;4.97;;;;;;;;;;5030172;28;20040;-83
2022/12/20 14:08:01;;;;;;;8.30;4.45;;;;;;;;;;5030059;28;20051;-85
2022/12/20 14:10:31;;;;;;;11.00;4.82;;;;;;;;;;5037758;28;20503;-83
2022/12/20 14:12:57;;;;;;;10.63;4.97;;;;;;;;;;5039317;28;20025;-83
2022/12/20 14:15:34;;;;;;;13.25;5.32;;;;;;;;;;5046551;28;20032;-81
2022/12/20 14:18:14;;;;;;;16.33;7.35;;;;;;;;;;5037651;28;20111;-83
2022/12/20 14:20:41;;;;;;;10.68;5.70;;;;;;;;;;5031246;28;20537;-85
2022/12/20 14:23:12;;;;;;;12.07;6.57;;;;;;;;;;5041289;28;20082;-85
2022/12/20 14:25:42;;;;;;;14.80;6.20;;;;;;;;;;5042465;28;20528;-86
2022/12/20 14:28:15;;;;;;;64.38;26.10;;;;;;;;;;5041946;28;20029;-83
2022/12/20 14:30:42;;;;;;;45.88;21.08;;;;;;;;;;5039166;28;20032;-85
2022/12/20 14:33:29;;;;;;;44.25;18.55;;;5.20;99.90;;;;;;5036376;28;20040;-86
2022/12/20 14:35:55;;;;;;;22.75;10.82;;;;;;;;;;5026642;28;20037;-84
2022/12/20 14:38:23;;;;;;;44.00;16.92;;;;;;;;;;5030567;28;20253;-86
2022/12/20 14:40:49;;;;;;;66.10;26.92;;;;;;;;;;5037046;28;20120;-84